createdAt,value
2017-07-27T00:00:11.238Z,13.03
2017-07-27T00:02:38.154Z,8.63
2017-07-27T00:05:05.090Z,10.00
2017-07-27T00:07:32.040Z,16.70
2017-07-27T00:09:58.982Z,11.93
2017-07-27T00:12:25.901Z,9.67
2017-07-27T00:14:52.825Z,9.80
2017-07-27T00:17:19.783Z,12.50
2017-07-27T00:19:47.733Z,12.03
2017-07-27T00:22:14.662Z,10.13
2017-07-27T00:24:42.377Z,12.13
2017-07-27T00:27:09.290Z,14.33
2017-07-27T00:29:36.205Z,14.23
2017-07-27T00:32:04.034Z,14.97
2017-07-27T00:34:30.947Z,13.77
2017-07-27T00:36:57.876Z,13.70
2017-07-27T00:39:24.817Z,12.90
2017-07-27T00:41:51.787Z,14.00
2017-07-27T00:44:18.742Z,17.13
2017-07-27T00:46:46.447Z,18.43
2017-07-27T00:49:13.395Z,16.83
2017-07-27T00:51:40.326Z,17.90
2017-07-27T00:54:07.251Z,17.10
2017-07-27T00:56:34.192Z,16.43
2017-07-27T00:59:01.888Z,19.87
2017-07-27T01:01:28.870Z,23.10
2017-07-27T01:03:55.789Z,21.83
2017-07-27T01:06:23.638Z,19.93
2017-07-27T01:08:50.558Z,17.77
2017-07-27T01:11:17.532Z,18.37
2017-07-27T01:13:44.463Z,15.80
2017-07-27T01:16:11.407Z,17.93
2017-07-27T01:18:38.339Z,15.53
2017-07-27T01:21:05.282Z,16.93
2017-07-27T01:23:32.197Z,15.63
2017-07-27T01:25:59.142Z,16.17
2017-07-27T01:28:26.067Z,17.83
2017-07-27T01:30:53.022Z,17.27
2017-07-27T01:33:19.969Z,14.97
2017-07-27T01:35:46.916Z,16.93
2017-07-27T01:38:14.844Z,17.30
2017-07-27T01:40:41.779Z,16.87
2017-07-27T01:43:08.709Z,16.20
2017-07-27T01:45:35.647Z,14.77
2017-07-27T01:48:02.570Z,14.53
2017-07-27T01:50:29.509Z,13.77
2017-07-27T01:52:56.441Z,13.90
2017-07-27T01:55:23.389Z,15.50
2017-07-27T01:57:50.311Z,13.57
2017-07-27T02:00:17.268Z,11.97
2017-07-27T02:02:44.187Z,15.63
2017-07-27T02:05:11.105Z,13.97
2017-07-27T02:07:38.061Z,14.80
2017-07-27T02:10:04.986Z,21.73
2017-07-27T02:12:32.694Z,14.03
2017-07-27T02:14:59.635Z,10.30
2017-07-27T02:17:26.590Z,12.10
2017-07-27T02:19:53.511Z,11.90
2017-07-27T02:22:20.457Z,12.63
2017-07-27T02:24:47.389Z,12.67
2017-07-27T02:27:14.314Z,13.90
2017-07-27T02:29:42.034Z,10.97
2017-07-27T02:32:08.950Z,13.23
2017-07-27T02:34:35.899Z,12.57
2017-07-27T02:37:02.826Z,12.60
2017-07-27T02:39:29.771Z,11.90
2017-07-27T02:41:57.598Z,12.27
2017-07-27T02:44:24.538Z,11.67
2017-07-27T02:46:51.466Z,13.43
2017-07-27T02:49:19.402Z,12.73
2017-07-27T02:51:46.326Z,13.40
2017-07-27T02:54:14.053Z,13.13
2017-07-27T02:56:40.974Z,16.13
2017-07-27T02:59:08.910Z,14.43
2017-07-27T03:01:35.875Z,12.83
2017-07-27T03:04:02.805Z,19.40
2017-07-27T03:06:31.662Z,14.17
2017-07-27T03:08:58.586Z,14.93
2017-07-27T03:11:25.526Z,16.03
2017-07-27T03:13:52.454Z,14.50
2017-07-27T03:16:19.388Z,15.77
2017-07-27T03:18:46.298Z,11.83
2017-07-27T03:21:13.999Z,15.67
2017-07-27T03:23:40.919Z,15.70
2017-07-27T03:26:07.872Z,12.97
2017-07-27T03:28:34.790Z,12.80
2017-07-27T03:31:03.494Z,11.43
2017-07-27T03:33:31.374Z,13.73
2017-07-27T03:35:58.339Z,16.10
2017-07-27T03:38:25.302Z,16.00
2017-07-27T03:40:53.220Z,15.67
2017-07-27T03:43:20.161Z,13.17
2017-07-27T03:45:47.092Z,13.03
2017-07-27T03:48:14.035Z,13.70
2017-07-27T03:50:41.742Z,13.70
2017-07-27T03:53:08.689Z,10.97
2017-07-27T03:55:37.656Z,15.30
2017-07-27T03:58:04.598Z,13.33
2017-07-27T04:00:31.536Z,13.60
2017-07-27T04:02:58.470Z,15.87
2017-07-27T04:05:26.153Z,11.77
2017-07-27T04:07:53.097Z,14.37
2017-07-27T04:10:21.966Z,11.70
2017-07-27T04:12:49.690Z,11.70
2017-07-27T04:15:16.615Z,13.10
2017-07-27T04:17:44.568Z,14.20
2017-07-27T04:20:11.483Z,13.30
2017-07-27T04:22:38.398Z,10.30
2017-07-27T04:25:08.029Z,11.30
2017-07-27T04:27:34.986Z,13.90
2017-07-27T04:30:02.840Z,12.00
2017-07-27T04:32:29.781Z,13.43
2017-07-27T04:34:56.722Z,12.07
2017-07-27T04:37:23.638Z,15.70
2017-07-27T04:39:50.574Z,18.37
2017-07-27T04:42:17.498Z,14.30
2017-07-27T04:44:44.434Z,13.20
2017-07-27T04:47:11.353Z,12.30
2017-07-27T04:49:38.297Z,11.50
2017-07-27T04:52:06.149Z,12.80
2017-07-27T04:54:33.105Z,10.17
2017-07-27T04:57:20.786Z,11.10
2017-07-27T04:59:47.721Z,11.77
2017-07-27T05:02:14.642Z,11.60
2017-07-27T05:04:41.711Z,13.87
2017-07-27T05:07:08.641Z,26.53
2017-07-27T05:09:35.558Z,17.60
2017-07-27T05:12:02.490Z,12.40
2017-07-27T05:14:29.413Z,21.90
2017-07-27T05:16:57.279Z,34.13
2017-07-27T05:19:24.218Z,12.60
2017-07-27T05:21:52.080Z,13.60
2017-07-27T05:24:19.988Z,16.00
2017-07-27T05:26:48.886Z,12.77
2017-07-27T05:29:15.807Z,12.73
2017-07-27T05:31:43.521Z,11.70
2017-07-27T05:34:10.439Z,12.20
2017-07-27T05:36:37.381Z,14.97
2017-07-27T05:39:04.306Z,12.37
2017-07-27T05:41:32.014Z,11.77
2017-07-27T05:43:58.934Z,15.40
2017-07-27T05:46:25.862Z,11.83
2017-07-27T05:48:52.831Z,15.70
2017-07-27T05:51:19.747Z,13.63
2017-07-27T05:53:47.479Z,13.30
2017-07-27T05:56:14.405Z,15.53
2017-07-27T05:58:42.419Z,13.10
2017-07-27T06:01:10.106Z,17.97
2017-07-27T06:03:37.022Z,17.53
2017-07-27T06:06:04.722Z,16.17
2017-07-27T06:08:31.642Z,16.83
2017-07-27T06:10:59.533Z,14.77
2017-07-27T06:13:26.445Z,13.33
2017-07-27T06:15:53.387Z,12.37
2017-07-27T06:18:21.090Z,13.40
2017-07-27T06:20:48.016Z,16.87
2017-07-27T06:23:14.970Z,16.07
2017-07-27T06:25:41.896Z,14.70
2017-07-27T06:28:08.830Z,16.40
2017-07-27T06:30:36.506Z,14.13
2017-07-27T06:33:03.441Z,16.97
2017-07-27T06:35:30.353Z,13.27
2017-07-27T06:37:57.353Z,12.77
2017-07-27T06:40:24.270Z,24.63
2017-07-27T06:42:51.985Z,17.10
2017-07-27T06:45:18.911Z,15.37
2017-07-27T06:47:45.867Z,15.03
2017-07-27T06:50:12.785Z,17.33
2017-07-27T06:52:39.715Z,18.07
2017-07-27T06:55:07.740Z,14.13
2017-07-27T06:57:36.693Z,26.73
2017-07-27T07:00:04.524Z,23.13
2017-07-27T07:02:31.493Z,26.30
2017-07-27T07:05:06.644Z,24.60
2017-07-27T07:07:33.586Z,16.87
2017-07-27T07:10:04.817Z,18.17
2017-07-27T07:12:33.686Z,19.40
2017-07-27T07:15:00.612Z,18.33
2017-07-27T07:17:27.544Z,16.00
2017-07-27T07:19:55.426Z,19.13
2017-07-27T07:22:26.150Z,23.23
2017-07-27T07:24:53.093Z,24.10
2017-07-27T07:27:22.945Z,29.00
2017-07-27T07:29:51.535Z,20.07
2017-07-27T07:32:18.480Z,20.93
2017-07-27T07:34:46.162Z,18.60
2017-07-27T07:37:13.093Z,18.47
2017-07-27T07:39:40.009Z,17.00
2017-07-27T07:42:08.735Z,15.57
2017-07-27T07:44:35.662Z,19.60
2017-07-27T07:47:03.571Z,19.87
2017-07-27T07:49:30.496Z,19.67
2017-07-27T07:51:57.473Z,20.00
2017-07-27T07:54:24.433Z,28.10
2017-07-27T07:56:51.392Z,19.60
2017-07-27T07:59:21.013Z,20.40
2017-07-27T08:01:48.874Z,20.93
2017-07-27T08:04:15.794Z,24.80
2017-07-27T08:06:43.499Z,21.57
2017-07-27T08:09:22.447Z,20.03
2017-07-27T08:11:49.399Z,19.80
2017-07-27T08:14:16.318Z,22.03
2017-07-27T08:16:43.254Z,18.10
2017-07-27T08:19:12.085Z,19.63
2017-07-27T08:21:39.998Z,19.20
2017-07-27T08:24:06.927Z,18.30
2017-07-27T08:26:34.629Z,19.47
2017-07-27T08:29:01.546Z,20.10
2017-07-27T08:31:28.506Z,23.23
2017-07-27T08:33:55.442Z,20.33
2017-07-27T08:36:22.407Z,24.77
2017-07-27T08:38:49.340Z,24.87
2017-07-27T08:41:16.286Z,25.70
2017-07-27T08:43:43.241Z,23.53
2017-07-27T08:46:11.213Z,24.90
2017-07-27T08:48:38.146Z,26.80
2017-07-27T08:51:05.079Z,26.70
2017-07-27T08:53:32.043Z,27.30
2017-07-27T08:55:58.968Z,27.67
2017-07-27T08:58:29.233Z,30.00
2017-07-27T09:00:56.170Z,27.73
2017-07-27T09:03:24.141Z,29.53
2017-07-27T09:05:52.064Z,34.00
2017-07-27T09:08:19.014Z,30.73
2017-07-27T09:10:45.955Z,29.87
2017-07-27T09:13:13.807Z,25.97
2017-07-27T09:15:40.754Z,24.43
2017-07-27T09:18:07.674Z,25.90
2017-07-27T09:20:35.385Z,25.63
2017-07-27T09:23:03.237Z,25.53
2017-07-27T09:25:30.180Z,25.47
2017-07-27T09:27:57.103Z,23.77
2017-07-27T09:30:24.099Z,23.60
2017-07-27T09:32:51.067Z,25.70
2017-07-27T09:35:18.034Z,21.20
2017-07-27T09:37:44.952Z,25.93
2017-07-27T09:40:11.882Z,23.23
2017-07-27T09:42:38.837Z,22.87
2017-07-27T09:45:06.712Z,23.03
2017-07-27T09:47:34.461Z,20.60
2017-07-27T09:50:01.401Z,21.80
2017-07-27T09:52:30.319Z,22.13
2017-07-27T09:54:59.181Z,22.07
2017-07-27T09:57:26.118Z,20.80
2017-07-27T09:59:53.038Z,20.77
2017-07-27T10:02:20.746Z,19.90
2017-07-27T10:04:52.292Z,19.37
2017-07-27T10:07:20.332Z,19.20
2017-07-27T10:09:48.226Z,16.90
2017-07-27T10:12:15.174Z,20.43
2017-07-27T10:14:42.124Z,19.80
2017-07-27T10:17:09.098Z,15.73
2017-07-27T10:19:39.851Z,15.20
2017-07-27T10:22:06.792Z,18.60
2017-07-27T10:24:33.750Z,19.03
2017-07-27T10:27:01.437Z,21.53
2017-07-27T10:29:29.316Z,18.20
2017-07-27T10:31:56.246Z,16.27
2017-07-27T10:34:24.127Z,16.00
2017-07-27T10:36:51.982Z,13.87
2017-07-27T10:39:20.902Z,13.43
2017-07-27T10:41:49.785Z,20.77
2017-07-27T10:44:17.753Z,18.73
2017-07-27T10:46:44.746Z,15.77
2017-07-27T10:49:11.740Z,15.00
2017-07-27T10:51:39.599Z,13.30
2017-07-27T10:54:06.543Z,15.00
2017-07-27T10:56:33.482Z,11.90
2017-07-27T10:59:01.222Z,15.30
2017-07-27T11:01:28.160Z,15.93
2017-07-27T11:03:55.113Z,12.43
2017-07-27T11:06:22.042Z,12.03
2017-07-27T11:08:50.010Z,10.93
2017-07-27T11:11:16.928Z,10.50
2017-07-27T11:13:43.846Z,12.83
2017-07-27T11:16:11.553Z,10.00
2017-07-27T11:18:38.469Z,10.03
2017-07-27T11:21:06.162Z,14.27
2017-07-27T11:23:33.849Z,9.90
2017-07-27T11:26:00.802Z,13.30
2017-07-27T11:28:27.705Z,9.10
2017-07-27T11:30:54.634Z,13.93
2017-07-27T11:33:21.563Z,5.70
2017-07-27T11:35:49.247Z,8.67
2017-07-27T11:38:16.177Z,11.23
2017-07-27T11:40:43.858Z,10.67
2017-07-27T11:43:10.825Z,5.47
2017-07-27T11:45:37.733Z,6.57
2017-07-27T11:48:05.422Z,8.07
2017-07-27T11:50:32.351Z,6.70
2017-07-27T11:52:59.259Z,4.97
2017-07-27T11:55:26.190Z,8.23
2017-07-27T11:57:53.117Z,12.00
2017-07-27T12:00:20.080Z,8.60
2017-07-27T12:02:46.998Z,14.50
2017-07-27T12:05:14.921Z,5.57
2017-07-27T12:07:43.626Z,8.87
2017-07-27T12:10:10.538Z,4.70
2017-07-27T12:12:37.466Z,11.30
2017-07-27T12:15:04.384Z,9.17
2017-07-27T12:17:32.327Z,9.90
2017-07-27T12:19:59.237Z,3.20
2017-07-27T12:22:26.162Z,3.27
2017-07-27T12:24:54.069Z,5.43
2017-07-27T12:27:21.978Z,9.63
2017-07-27T12:29:48.920Z,14.33
2017-07-27T12:32:15.861Z,6.07
2017-07-27T12:34:43.718Z,9.37
2017-07-27T12:37:10.650Z,9.90
2017-07-27T12:39:38.500Z,10.50
2017-07-27T12:42:06.206Z,5.23
2017-07-27T12:44:33.118Z,5.57
2017-07-27T12:47:00.069Z,6.90
2017-07-27T12:49:26.998Z,5.83
2017-07-27T12:51:54.881Z,11.83
2017-07-27T12:54:21.800Z,9.00
2017-07-27T12:56:49.499Z,6.80
2017-07-27T12:59:16.410Z,12.20
2017-07-27T13:01:44.135Z,7.60
2017-07-27T13:04:11.867Z,8.20
2017-07-27T13:06:38.805Z,8.70
2017-07-27T13:09:05.720Z,8.83
2017-07-27T13:11:33.399Z,13.93
2017-07-27T13:14:00.341Z,5.90
2017-07-27T13:16:27.249Z,10.43
2017-07-27T13:18:54.204Z,6.33
2017-07-27T13:21:21.914Z,7.70
2017-07-27T13:23:48.906Z,10.70
2017-07-27T13:26:15.817Z,8.93
2017-07-27T13:28:42.751Z,10.10
2017-07-27T13:31:09.666Z,4.37
2017-07-27T13:33:37.357Z,3.90
2017-07-27T13:36:04.265Z,6.13
2017-07-27T13:38:31.982Z,9.53
2017-07-27T13:40:58.915Z,11.17
2017-07-27T13:43:25.834Z,7.10
2017-07-27T13:45:53.529Z,5.80
2017-07-27T13:48:20.446Z,9.13
2017-07-27T13:50:47.376Z,7.80
2017-07-27T13:53:15.079Z,11.73
2017-07-27T13:55:42.010Z,9.37
2017-07-27T13:58:08.918Z,9.20
2017-07-27T14:00:36.618Z,5.40
2017-07-27T14:03:03.525Z,10.77
2017-07-27T14:05:31.218Z,11.83
2017-07-27T14:07:58.138Z,9.40
2017-07-27T14:10:25.866Z,5.47
2017-07-27T14:12:52.774Z,7.90
2017-07-27T14:15:19.686Z,8.73
2017-07-27T14:17:47.382Z,8.70
2017-07-27T14:20:14.298Z,10.53
2017-07-27T14:22:41.985Z,7.27
2017-07-27T14:25:08.901Z,7.87
2017-07-27T14:27:36.622Z,5.47
2017-07-27T14:30:03.539Z,4.17
2017-07-27T14:32:30.454Z,9.30
2017-07-27T14:34:58.146Z,11.03
2017-07-27T14:37:25.195Z,12.00
2017-07-27T14:39:52.130Z,6.13
2017-07-27T14:42:19.054Z,10.90
2017-07-27T14:44:46.763Z,9.20
2017-07-27T14:47:13.680Z,8.30
2017-07-27T14:49:40.628Z,7.10
2017-07-27T14:52:07.545Z,8.27
2017-07-27T14:54:35.222Z,6.10
2017-07-27T14:57:02.154Z,6.50
2017-07-27T14:59:30.875Z,9.77
2017-07-27T15:01:57.790Z,10.60
2017-07-27T15:04:25.461Z,7.60
2017-07-27T15:06:52.390Z,12.93
2017-07-27T15:09:20.085Z,9.60
2017-07-27T15:11:46.993Z,6.60
2017-07-27T15:14:14.707Z,9.33
2017-07-27T15:16:41.621Z,7.83
2017-07-27T15:19:08.538Z,13.27
2017-07-27T15:21:36.225Z,6.83
2017-07-27T15:24:03.150Z,8.63
2017-07-27T15:26:30.869Z,7.17
2017-07-27T15:28:57.817Z,12.07
2017-07-27T15:31:24.765Z,9.87
2017-07-27T15:33:51.673Z,3.60
2017-07-27T15:36:18.609Z,10.33
2017-07-27T15:38:45.524Z,15.00
2017-07-27T15:41:13.222Z,7.00
2017-07-27T15:43:40.142Z,5.33
2017-07-27T15:46:07.077Z,6.57
2017-07-27T15:48:34.771Z,13.97
2017-07-27T15:51:02.637Z,13.40
2017-07-27T15:53:29.549Z,4.27
2017-07-27T15:55:57.266Z,4.13
2017-07-27T15:58:24.230Z,14.20
2017-07-27T16:00:51.143Z,8.67
2017-07-27T16:03:18.089Z,9.33
2017-07-27T16:05:45.043Z,10.87
2017-07-27T16:08:12.980Z,15.60
2017-07-27T16:10:39.905Z,10.63
2017-07-27T16:13:08.626Z,8.47
2017-07-27T16:15:35.538Z,6.67
2017-07-27T16:18:03.262Z,10.77
2017-07-27T16:20:30.285Z,12.17
2017-07-27T16:22:58.110Z,28.23
2017-07-27T16:25:25.811Z,8.57
2017-07-27T16:27:52.759Z,6.57
2017-07-27T16:30:19.672Z,10.03
2017-07-27T16:32:47.378Z,5.03
2017-07-27T16:35:14.309Z,7.37
2017-07-27T16:37:41.354Z,8.17
2017-07-27T16:40:08.265Z,7.63
2017-07-27T16:42:36.067Z,10.50
2017-07-27T16:45:02.989Z,5.63
2017-07-27T16:47:29.917Z,7.60
2017-07-27T16:49:58.747Z,5.50
2017-07-27T16:52:25.683Z,5.40
2017-07-27T16:54:52.602Z,7.27
2017-07-27T16:57:20.321Z,10.00
2017-07-27T16:59:47.236Z,5.97
2017-07-27T17:02:14.210Z,8.73
2017-07-27T17:04:41.122Z,14.07
2017-07-27T17:07:08.045Z,4.80
2017-07-27T17:09:35.947Z,12.93
2017-07-27T17:12:02.983Z,8.93
2017-07-27T17:14:29.974Z,10.27
2017-07-27T17:16:56.915Z,11.03
2017-07-27T17:19:23.986Z,8.40
2017-07-27T17:21:51.722Z,9.13
2017-07-27T17:24:18.649Z,5.83
2017-07-27T17:26:45.678Z,12.53
2017-07-27T17:29:12.602Z,12.33
2017-07-27T17:31:39.550Z,11.23
2017-07-27T17:34:06.472Z,6.53
2017-07-27T17:36:33.411Z,4.73
2017-07-27T17:39:01.132Z,13.10
2017-07-27T17:41:28.063Z,9.23
2017-07-27T17:43:55.003Z,12.83
2017-07-27T17:46:21.945Z,11.13
2017-07-27T17:48:48.849Z,9.57
2017-07-27T17:51:15.763Z,8.00
2017-07-27T17:53:42.707Z,6.83
2017-07-27T17:56:09.619Z,13.53
2017-07-27T17:58:36.554Z,6.57
2017-07-27T18:01:03.470Z,10.47
2017-07-27T18:03:30.400Z,8.90
2017-07-27T18:05:57.343Z,7.30
2017-07-27T18:08:24.287Z,14.67
2017-07-27T18:10:51.217Z,11.47
2017-07-27T18:13:18.148Z,6.80
2017-07-27T18:15:45.829Z,8.30
2017-07-27T18:18:12.758Z,13.27
2017-07-27T18:20:39.674Z,8.20
2017-07-27T18:23:06.605Z,9.03
2017-07-27T18:25:33.525Z,7.43
2017-07-27T18:28:00.479Z,10.60
2017-07-27T18:30:27.393Z,10.03
2017-07-27T18:32:54.320Z,13.70
2017-07-27T18:35:21.998Z,9.67
2017-07-27T18:37:48.935Z,8.43
2017-07-27T18:40:15.898Z,9.47
2017-07-27T18:42:42.830Z,7.93
2017-07-27T18:45:09.768Z,12.30
2017-07-27T18:47:36.678Z,9.23
2017-07-27T18:50:04.598Z,12.13
2017-07-27T18:52:31.518Z,5.20
2017-07-27T18:54:58.459Z,8.93
2017-07-27T18:57:26.138Z,14.17
2017-07-27T18:59:53.100Z,10.40
2017-07-27T19:02:20.086Z,7.53
2017-07-27T19:04:47.032Z,9.63
2017-07-27T19:07:13.946Z,12.50
2017-07-27T19:09:40.892Z,13.50
2017-07-27T19:12:07.810Z,5.27
2017-07-27T19:14:34.743Z,13.13
2017-07-27T19:17:01.655Z,10.80
2017-07-27T19:19:28.606Z,12.30
2017-07-27T19:21:56.288Z,5.23
2017-07-27T19:24:23.222Z,10.27
2017-07-27T19:26:50.133Z,8.33
2017-07-27T19:29:17.069Z,8.40
2017-07-27T19:31:44.014Z,8.73
2017-07-27T19:36:55.723Z,11.83
2017-07-27T19:39:22.659Z,6.10
2017-07-27T19:41:49.577Z,5.00
2017-07-27T19:44:16.631Z,10.80
2017-07-27T19:46:43.570Z,10.13
2017-07-27T19:49:10.526Z,11.10
2017-07-27T19:51:37.434Z,7.00
2017-07-27T19:54:04.374Z,15.83
2017-07-27T19:56:32.067Z,12.00
2017-07-27T19:58:59.009Z,9.77
2017-07-27T20:01:25.927Z,7.03
2017-07-27T20:03:52.890Z,11.00
2017-07-27T20:06:19.828Z,10.90
2017-07-27T20:08:46.759Z,4.23
2017-07-27T20:11:14.472Z,10.43
2017-07-27T20:13:41.386Z,7.63
2017-07-27T20:16:08.735Z,11.17
2017-07-27T20:18:35.698Z,11.50
2017-07-27T20:21:02.617Z,6.97
2017-07-27T20:23:29.556Z,8.67
2017-07-27T20:25:56.494Z,9.07
2017-07-27T20:28:23.414Z,5.13
2017-07-27T20:30:50.354Z,9.67
2017-07-27T20:33:17.274Z,6.67
2017-07-27T20:35:44.224Z,8.73
2017-07-27T20:38:11.134Z,9.93
2017-07-27T20:40:38.067Z,6.70
2017-07-27T20:43:05.742Z,9.57
2017-07-27T20:45:32.693Z,5.60
2017-07-27T20:47:59.602Z,5.90
2017-07-27T20:50:26.525Z,7.60
2017-07-27T20:52:53.449Z,6.37
2017-07-27T20:55:20.366Z,14.40
2017-07-27T20:57:47.302Z,14.50
2017-07-27T21:00:14.213Z,13.40
2017-07-27T21:02:41.143Z,7.60
2017-07-27T21:05:08.056Z,11.30
2017-07-27T21:07:35.031Z,8.70
2017-07-27T21:10:01.958Z,9.63
2017-07-27T21:12:28.883Z,5.27
2017-07-27T21:14:55.817Z,12.27
2017-07-27T21:17:22.739Z,12.27
2017-07-27T21:19:50.440Z,11.50
2017-07-27T21:22:17.403Z,16.73
2017-07-27T21:24:44.319Z,7.43
2017-07-27T21:27:12.074Z,5.20
2017-07-27T21:29:39.005Z,8.23
2017-07-27T21:32:06.690Z,7.63
2017-07-27T21:34:33.621Z,10.13
2017-07-27T21:37:00.537Z,17.53
2017-07-27T21:39:27.497Z,11.10
2017-07-27T21:41:54.421Z,6.63
2017-07-27T21:44:21.365Z,10.17
2017-07-27T21:46:48.297Z,7.80
2017-07-27T21:49:15.211Z,14.30
2017-07-27T21:51:42.173Z,52.07
2017-07-27T21:54:09.099Z,25.43
2017-07-27T21:56:36.029Z,19.70
2017-07-27T21:59:02.954Z,17.00
2017-07-27T22:01:30.659Z,23.63
2017-07-27T22:03:57.577Z,10.27
2017-07-27T22:06:24.529Z,8.33
2017-07-27T22:08:51.442Z,15.83
2017-07-27T22:11:19.120Z,7.70
2017-07-27T22:13:46.053Z,13.53
2017-07-27T22:16:13.734Z,9.83
2017-07-27T22:18:40.662Z,16.33
2017-07-27T22:21:08.358Z,9.67
2017-07-27T22:23:35.299Z,14.47
2017-07-27T22:26:02.219Z,10.60
2017-07-27T22:28:29.947Z,9.87
2017-07-27T22:30:56.862Z,13.87
2017-07-27T22:33:23.804Z,9.03
2017-07-27T22:35:50.732Z,15.13
2017-07-27T22:38:17.661Z,9.90
2017-07-27T22:40:45.451Z,8.47
2017-07-27T22:43:12.803Z,10.07
2017-07-27T22:45:39.724Z,16.20
2017-07-27T22:48:06.665Z,6.00
2017-07-27T22:50:34.347Z,12.17
2017-07-27T22:53:01.282Z,8.00
2017-07-27T22:55:28.197Z,9.63
2017-07-27T22:57:55.138Z,12.10
2017-07-27T23:00:22.097Z,20.57
2017-07-27T23:02:49.812Z,7.77
2017-07-27T23:05:16.763Z,9.07
2017-07-27T23:07:43.690Z,18.70
2017-07-27T23:10:10.626Z,12.20
2017-07-27T23:12:37.554Z,9.90
2017-07-27T23:15:04.470Z,9.50
2017-07-27T23:17:31.402Z,8.93
2017-07-27T23:19:58.356Z,8.13
2017-07-27T23:22:25.282Z,8.50
2017-07-27T23:24:52.211Z,5.10
2017-07-27T23:27:20.138Z,9.10
2017-07-27T23:29:47.073Z,16.50
2017-07-27T23:32:14.755Z,13.13
2017-07-27T23:34:41.690Z,15.70
2017-07-27T23:37:08.606Z,13.10
2017-07-27T23:39:35.542Z,17.53
2017-07-27T23:42:02.454Z,9.53
2017-07-27T23:44:29.399Z,13.70
2017-07-27T23:46:56.313Z,12.60
2017-07-27T23:49:23.249Z,8.10
2017-07-27T23:51:50.966Z,9.40
2017-07-27T23:54:17.902Z,8.93
2017-07-27T23:56:44.819Z,10.33
2017-07-27T23:59:11.749Z,5.27
